createdAt,value
2019-03-24T00:00:47.827Z,8.22
2019-03-24T00:01:47.801Z,8.25
2019-03-24T00:02:47.798Z,8.18
2019-03-24T00:03:47.792Z,8.18
2019-03-24T00:04:47.753Z,8.20
2019-03-24T00:05:47.762Z,8.34
2019-03-24T00:06:47.735Z,8.18
2019-03-24T00:07:47.744Z,8.18
2019-03-24T00:08:47.714Z,8.33
2019-03-24T00:09:47.723Z,8.25
2019-03-24T00:10:47.685Z,8.18
2019-03-24T00:11:47.672Z,8.18
2019-03-24T00:12:47.666Z,8.15
2019-03-24T00:13:47.650Z,8.16
2019-03-24T00:14:47.660Z,8.19
2019-03-24T00:15:47.627Z,8.19
2019-03-24T00:16:47.622Z,8.19
2019-03-24T00:17:47.650Z,8.16
2019-03-24T00:18:47.594Z,8.16
2019-03-24T00:19:47.599Z,8.19
2019-03-24T00:20:47.577Z,8.15
2019-03-24T00:21:47.574Z,8.16
2019-03-24T00:22:47.571Z,8.22
2019-03-24T00:23:47.541Z,8.16
2019-03-24T00:24:47.526Z,8.15
2019-03-24T00:25:47.521Z,8.15
2019-03-24T00:26:47.507Z,8.11
2019-03-24T00:27:47.513Z,8.16
2019-03-24T00:28:47.568Z,8.11
2019-03-24T00:29:47.473Z,8.15
2019-03-24T00:30:47.461Z,8.10
2019-03-24T00:31:47.478Z,8.02
2019-03-24T00:32:47.434Z,8.12
2019-03-24T00:33:47.424Z,8.16
2019-03-24T00:34:48.220Z,8.12
2019-03-24T00:35:47.403Z,8.08
2019-03-24T00:36:47.420Z,8.07
2019-03-24T00:37:47.379Z,8.08
2019-03-24T00:38:47.372Z,8.05
2019-03-24T00:39:47.357Z,8.02
2019-03-24T00:40:47.348Z,8.08
2019-03-24T00:41:47.396Z,8.04
2019-03-24T00:42:47.354Z,8.04
2019-03-24T00:43:47.311Z,8.07
2019-03-24T00:44:47.300Z,8.02
2019-03-24T00:45:47.290Z,8.02
2019-03-24T00:46:47.280Z,7.97
2019-03-24T00:47:49.438Z,7.98
2019-03-24T00:48:47.262Z,7.97
2019-03-24T00:49:47.270Z,7.95
2019-03-24T00:50:47.234Z,7.98
2019-03-24T00:51:47.224Z,7.93
2019-03-24T00:52:47.212Z,7.97
2019-03-24T00:53:47.201Z,7.97
2019-03-24T00:54:47.210Z,7.83
2019-03-24T00:55:47.182Z,7.97
2019-03-24T00:56:47.167Z,7.89
2019-03-24T00:57:47.153Z,7.90
2019-03-24T00:58:47.164Z,7.93
2019-03-24T00:59:47.129Z,7.90
2019-03-24T01:00:47.120Z,7.87
2019-03-24T01:01:47.130Z,7.89
2019-03-24T01:02:47.099Z,7.97
2019-03-24T01:03:47.088Z,7.89
2019-03-24T01:04:47.078Z,7.92
2019-03-24T01:05:47.062Z,7.85
2019-03-24T01:06:47.073Z,7.83
2019-03-24T01:07:47.048Z,7.77
2019-03-24T01:08:47.033Z,7.77
2019-03-24T01:09:47.020Z,7.77
2019-03-24T01:10:47.038Z,7.77
2019-03-24T01:11:46.993Z,7.85
2019-03-24T01:12:46.986Z,7.80
2019-03-24T01:13:46.971Z,7.74
2019-03-24T01:14:46.961Z,7.69
2019-03-24T01:15:48.078Z,7.74
2019-03-24T01:16:46.943Z,7.69
2019-03-24T01:17:46.931Z,7.68
2019-03-24T01:18:46.916Z,7.75
2019-03-24T01:19:46.907Z,7.68
2019-03-24T01:20:46.916Z,7.61
2019-03-24T01:21:46.886Z,7.72
2019-03-24T01:22:46.876Z,7.69
2019-03-24T01:23:46.864Z,7.67
2019-03-24T01:24:46.852Z,7.63
2019-03-24T01:25:46.861Z,7.64
2019-03-24T01:26:46.832Z,7.67
2019-03-24T01:27:46.838Z,7.63
2019-03-24T01:28:46.807Z,7.55
2019-03-24T01:29:46.821Z,7.64
2019-03-24T01:30:46.780Z,7.57
2019-03-24T01:31:46.817Z,7.60
2019-03-24T01:32:46.758Z,7.63
2019-03-24T01:33:46.766Z,7.57
2019-03-24T01:34:46.741Z,7.60
2019-03-24T01:35:46.728Z,7.57
2019-03-24T01:36:46.716Z,7.46
2019-03-24T01:37:46.723Z,7.57
2019-03-24T01:38:46.689Z,7.48
2019-03-24T01:39:46.688Z,7.55
2019-03-24T01:40:46.670Z,7.50
2019-03-24T01:41:46.658Z,7.46
2019-03-24T01:42:46.667Z,7.55
2019-03-24T01:43:46.638Z,7.48
2019-03-24T01:44:46.625Z,7.45
2019-03-24T01:45:46.615Z,7.43
2019-03-24T01:46:46.600Z,7.48
2019-03-24T01:47:46.611Z,7.48
2019-03-24T01:48:46.583Z,7.48
2019-03-24T01:49:46.575Z,7.43
2019-03-24T01:50:46.555Z,7.40
2019-03-24T01:51:46.548Z,7.43
2019-03-24T01:52:46.563Z,7.37
2019-03-24T01:53:46.521Z,7.32
2019-03-24T01:54:46.515Z,7.32
2019-03-24T01:55:46.499Z,7.30
2019-03-24T01:56:46.492Z,7.35
2019-03-24T01:57:46.507Z,7.25
2019-03-24T01:58:46.464Z,7.25
2019-03-24T01:59:46.456Z,7.17
2019-03-24T02:00:46.444Z,7.27
2019-03-24T02:01:46.437Z,7.23
2019-03-24T02:02:46.452Z,7.13
2019-03-24T02:03:46.412Z,7.09
2019-03-24T02:04:46.401Z,7.09
2019-03-24T02:05:46.409Z,7.12
2019-03-24T02:06:46.377Z,7.09
2019-03-24T02:07:46.383Z,7.07
2019-03-24T02:08:46.357Z,7.06
2019-03-24T02:09:46.351Z,7.07
2019-03-24T02:10:46.331Z,7.13
2019-03-24T02:12:01.059Z,6.98
2019-03-24T02:12:46.336Z,6.91
2019-03-24T02:13:46.300Z,6.99
2019-03-24T02:14:46.304Z,6.95
2019-03-24T02:15:46.299Z,7.02
2019-03-24T02:16:46.267Z,6.92
2019-03-24T02:17:46.257Z,6.99
2019-03-24T02:18:46.241Z,6.94
2019-03-24T02:19:46.257Z,6.92
2019-03-24T02:20:46.221Z,6.92
2019-03-24T02:21:46.209Z,6.89
2019-03-24T02:22:46.220Z,6.85
2019-03-24T02:23:46.187Z,6.84
2019-03-24T02:24:46.178Z,6.85
2019-03-24T02:25:46.187Z,6.84
2019-03-24T02:26:46.154Z,6.89
2019-03-24T02:27:46.144Z,6.88
2019-03-24T02:28:46.131Z,6.79
2019-03-24T02:29:46.121Z,6.77
2019-03-24T02:30:46.126Z,6.85
2019-03-24T02:31:46.099Z,6.80
2019-03-24T02:32:46.113Z,6.84
2019-03-24T02:33:46.075Z,6.79
2019-03-24T02:34:46.064Z,6.84
2019-03-24T02:35:46.054Z,6.80
2019-03-24T02:36:46.041Z,6.80
2019-03-24T02:37:46.105Z,6.79
2019-03-24T02:38:46.020Z,6.74
2019-03-24T02:39:46.009Z,6.69
2019-03-24T02:40:45.999Z,6.71
2019-03-24T02:41:46.013Z,6.76
2019-03-24T02:42:45.991Z,6.69
2019-03-24T02:43:46.019Z,6.71
2019-03-24T02:44:45.953Z,6.66
2019-03-24T02:45:45.941Z,6.71
2019-03-24T02:46:45.929Z,6.70
2019-03-24T02:47:45.941Z,6.62
2019-03-24T02:48:45.907Z,6.64
2019-03-24T02:49:45.899Z,6.67
2019-03-24T02:50:45.886Z,6.56
2019-03-24T02:51:45.873Z,6.55
2019-03-24T02:52:45.894Z,6.55
2019-03-24T02:53:45.850Z,6.59
2019-03-24T02:54:45.841Z,6.55
2019-03-24T02:55:45.833Z,6.58
2019-03-24T02:56:45.818Z,6.52
2019-03-24T02:57:45.835Z,6.52
2019-03-24T02:58:45.811Z,6.64
2019-03-24T02:59:45.785Z,6.55
2019-03-24T03:00:45.772Z,6.46
2019-03-24T03:01:45.761Z,6.46
2019-03-24T03:02:45.776Z,6.55
2019-03-24T03:03:45.768Z,6.52
2019-03-24T03:04:45.731Z,6.44
2019-03-24T03:05:45.720Z,6.52
2019-03-24T03:06:45.731Z,6.40
2019-03-24T03:07:45.712Z,6.51
2019-03-24T03:08:45.710Z,6.44
2019-03-24T03:09:45.686Z,6.46
2019-03-24T03:10:45.659Z,6.40
2019-03-24T03:11:45.671Z,6.51
2019-03-24T03:12:47.787Z,6.46
2019-03-24T03:13:45.653Z,6.41
2019-03-24T03:14:45.616Z,6.46
2019-03-24T03:15:45.608Z,6.38
2019-03-24T03:16:45.591Z,6.41
2019-03-24T03:17:45.633Z,6.27
2019-03-24T03:18:45.572Z,6.40
2019-03-24T03:19:45.588Z,6.43
2019-03-24T03:20:45.549Z,6.38
2019-03-24T03:21:45.541Z,6.40
2019-03-24T03:22:45.551Z,6.43
2019-03-24T03:23:45.521Z,6.44
2019-03-24T03:24:45.503Z,6.38
2019-03-24T03:25:45.492Z,6.30
2019-03-24T03:26:45.506Z,6.37
2019-03-24T03:27:45.468Z,6.31
2019-03-24T03:28:45.460Z,6.28
2019-03-24T03:29:45.449Z,6.31
2019-03-24T03:30:45.443Z,6.34
2019-03-24T03:31:45.457Z,6.27
2019-03-24T03:32:45.444Z,6.33
2019-03-24T03:33:45.416Z,6.27
2019-03-24T03:34:45.402Z,6.28
2019-03-24T03:35:45.409Z,6.27
2019-03-24T03:36:45.402Z,6.22
2019-03-24T03:37:45.362Z,6.27
2019-03-24T03:38:45.348Z,6.31
2019-03-24T03:39:45.342Z,6.31
2019-03-24T03:40:45.363Z,6.25
2019-03-24T03:41:45.317Z,6.30
2019-03-24T03:42:45.303Z,6.22
2019-03-24T03:43:45.291Z,6.30
2019-03-24T03:44:45.281Z,6.12
2019-03-24T03:45:45.311Z,6.21
2019-03-24T03:46:52.302Z,6.22
2019-03-24T03:47:46.244Z,6.19
2019-03-24T03:48:45.233Z,6.17
2019-03-24T03:49:45.222Z,6.17
2019-03-24T03:50:45.213Z,6.25
2019-03-24T03:51:45.241Z,6.15
2019-03-24T03:52:45.202Z,6.18
2019-03-24T03:53:45.181Z,6.14
2019-03-24T03:54:45.175Z,6.19
2019-03-24T03:55:45.158Z,6.15
2019-03-24T03:56:45.202Z,6.15
2019-03-24T03:57:45.156Z,6.08
2019-03-24T03:58:45.120Z,6.17
2019-03-24T03:59:45.115Z,6.11
2019-03-24T04:00:45.124Z,6.15
2019-03-24T04:01:45.095Z,6.12
2019-03-24T04:02:45.085Z,6.09
2019-03-24T04:03:45.087Z,6.11
2019-03-24T04:04:45.060Z,6.11
2019-03-24T04:05:45.043Z,6.14
2019-03-24T04:06:45.056Z,6.14
2019-03-24T04:07:45.024Z,6.09
2019-03-24T04:08:45.009Z,6.15
2019-03-24T04:09:45.027Z,6.11
2019-03-24T04:10:44.987Z,6.11
2019-03-24T04:11:45.078Z,6.11
2019-03-24T04:12:44.965Z,6.17
2019-03-24T04:13:44.959Z,6.08
2019-03-24T04:14:44.947Z,6.08
2019-03-24T04:15:45.036Z,6.09
2019-03-24T04:16:44.945Z,6.12
2019-03-24T04:17:44.943Z,6.08
2019-03-24T04:18:44.901Z,6.03
2019-03-24T04:19:44.906Z,6.06
2019-03-24T04:20:44.877Z,5.97
2019-03-24T04:21:44.865Z,6.06
2019-03-24T04:22:44.884Z,6.03
2019-03-24T04:23:44.843Z,6.00
2019-03-24T04:24:44.832Z,6.03
2019-03-24T04:25:44.819Z,5.94
2019-03-24T04:26:44.808Z,5.90
2019-03-24T04:27:44.813Z,5.96
2019-03-24T04:28:44.822Z,5.83
2019-03-24T04:29:44.775Z,5.99
2019-03-24T04:30:44.763Z,5.99
2019-03-24T04:31:44.753Z,5.91
2019-03-24T04:32:44.744Z,5.97
2019-03-24T04:33:44.757Z,5.94
2019-03-24T04:34:44.717Z,5.91
2019-03-24T04:35:44.709Z,6.00
2019-03-24T04:36:44.706Z,5.97
2019-03-24T04:37:44.684Z,5.82
2019-03-24T04:38:44.696Z,5.93
2019-03-24T04:39:44.691Z,5.85
2019-03-24T04:40:44.651Z,5.89
2019-03-24T04:41:44.641Z,5.94
2019-03-24T04:42:44.641Z,5.83
2019-03-24T04:43:44.623Z,5.82
2019-03-24T04:44:44.629Z,5.90
2019-03-24T04:45:44.595Z,5.86
2019-03-24T04:46:44.584Z,5.85
2019-03-24T04:47:44.574Z,5.81
2019-03-24T04:48:44.561Z,5.91
2019-03-24T04:49:44.577Z,5.81
2019-03-24T04:50:44.544Z,5.82
2019-03-24T04:51:44.528Z,5.82
2019-03-24T04:52:44.516Z,5.82
2019-03-24T04:53:44.507Z,5.85
2019-03-24T04:54:44.524Z,5.75
2019-03-24T04:55:44.483Z,5.78
2019-03-24T04:56:44.473Z,5.83
2019-03-24T04:57:44.460Z,5.79
2019-03-24T04:58:44.452Z,5.81
2019-03-24T04:59:44.461Z,5.78
2019-03-24T05:00:44.427Z,5.83
2019-03-24T05:01:44.418Z,5.83
2019-03-24T05:02:44.405Z,5.81
2019-03-24T05:03:44.417Z,5.76
2019-03-24T05:04:44.382Z,5.76
2019-03-24T05:05:44.372Z,5.72
2019-03-24T05:06:44.360Z,5.71
2019-03-24T05:07:44.373Z,5.78
2019-03-24T05:08:44.337Z,5.68
2019-03-24T05:09:44.329Z,5.65
2019-03-24T05:10:44.318Z,5.75
2019-03-24T05:11:44.303Z,5.67
2019-03-24T05:12:44.324Z,5.74
2019-03-24T05:13:44.282Z,5.71
2019-03-24T05:14:44.271Z,5.67
2019-03-24T05:15:44.261Z,5.74
2019-03-24T05:16:44.275Z,5.67
2019-03-24T05:17:44.239Z,5.72
2019-03-24T05:18:44.228Z,5.67
2019-03-24T05:19:44.237Z,5.61
2019-03-24T05:20:44.203Z,5.67
2019-03-24T05:21:44.192Z,5.63
2019-03-24T05:22:44.186Z,5.64
2019-03-24T05:23:46.089Z,5.65
2019-03-24T05:24:44.158Z,5.61
2019-03-24T05:25:44.149Z,5.68
2019-03-24T05:26:44.172Z,5.58
2019-03-24T05:27:44.129Z,5.63
2019-03-24T05:28:44.113Z,5.61
2019-03-24T05:29:44.103Z,5.67
2019-03-24T05:30:44.091Z,5.64
2019-03-24T05:31:44.110Z,5.60
2019-03-24T05:32:44.070Z,5.65
2019-03-24T05:33:44.058Z,5.63
2019-03-24T05:34:44.047Z,5.61
2019-03-24T05:35:44.035Z,5.63
2019-03-24T05:36:44.053Z,5.63
2019-03-24T05:37:44.015Z,5.58
2019-03-24T05:38:44.005Z,5.60
2019-03-24T05:39:43.990Z,5.60
2019-03-24T05:40:43.980Z,5.54
2019-03-24T05:41:43.984Z,5.51
2019-03-24T05:42:43.956Z,5.57
2019-03-24T05:43:43.945Z,5.49
2019-03-24T05:44:43.972Z,5.48
2019-03-24T05:45:43.923Z,5.54
2019-03-24T05:46:43.938Z,5.54
2019-03-24T05:47:43.900Z,5.54
2019-03-24T05:48:43.890Z,5.48
2019-03-24T05:49:43.879Z,5.61
2019-03-24T05:50:43.898Z,5.45
2019-03-24T05:51:43.855Z,5.42
2019-03-24T05:52:43.846Z,5.54
2019-03-24T05:53:43.835Z,5.51
2019-03-24T05:54:43.822Z,5.49
2019-03-24T05:55:43.837Z,5.43
2019-03-24T05:56:43.799Z,5.56
2019-03-24T05:57:43.811Z,5.43
2019-03-24T05:58:43.779Z,5.48
2019-03-24T05:59:43.766Z,5.40
2019-03-24T06:00:43.755Z,5.39
2019-03-24T06:01:43.743Z,5.38
2019-03-24T06:02:43.764Z,5.42
2019-03-24T06:03:43.722Z,5.42
2019-03-24T06:04:43.709Z,5.43
2019-03-24T06:05:43.699Z,5.43
2019-03-24T06:06:43.687Z,5.46
2019-03-24T06:07:43.702Z,5.42
2019-03-24T06:08:43.688Z,5.45
2019-03-24T06:09:43.679Z,5.46
2019-03-24T06:10:43.643Z,5.46
2019-03-24T06:11:43.630Z,5.45
2019-03-24T06:12:43.619Z,5.49
2019-03-24T06:13:43.640Z,5.45
2019-03-24T06:14:43.603Z,5.43
2019-03-24T06:15:43.586Z,5.42
2019-03-24T06:16:43.575Z,5.43
2019-03-24T06:17:47.883Z,5.43
2019-03-24T06:18:43.574Z,5.43
2019-03-24T06:19:43.541Z,5.43
2019-03-24T06:20:43.533Z,5.43
2019-03-24T06:21:43.521Z,5.38
2019-03-24T06:22:43.507Z,5.45
2019-03-24T06:23:43.514Z,5.46
2019-03-24T06:24:43.502Z,5.42
2019-03-24T06:25:43.503Z,5.40
2019-03-24T06:26:43.463Z,5.38
2019-03-24T06:27:43.451Z,5.43
2019-03-24T06:28:43.441Z,5.38
2019-03-24T06:29:43.430Z,5.42
2019-03-24T06:30:43.436Z,5.42
2019-03-24T06:31:43.407Z,5.43
2019-03-24T06:32:43.486Z,5.39
2019-03-24T06:33:43.385Z,5.35
2019-03-24T06:34:43.373Z,5.43
2019-03-24T06:35:43.364Z,5.43
2019-03-24T06:36:43.380Z,5.40
2019-03-24T06:37:43.339Z,5.39
2019-03-24T06:38:43.362Z,5.45
2019-03-24T06:39:43.317Z,5.43
2019-03-24T06:40:43.304Z,5.53
2019-03-24T06:41:43.294Z,5.48
2019-03-24T06:42:43.286Z,5.49
2019-03-24T06:43:43.290Z,5.40
2019-03-24T06:44:43.261Z,5.39
2019-03-24T06:45:43.249Z,5.31
2019-03-24T06:46:43.263Z,5.36
2019-03-24T06:47:43.230Z,5.36
2019-03-24T06:48:43.245Z,5.45
2019-03-24T06:49:43.204Z,5.43
2019-03-24T06:50:43.194Z,5.40
2019-03-24T06:51:43.209Z,5.42
2019-03-24T06:52:43.193Z,5.45
2019-03-24T06:53:43.239Z,5.48
2019-03-24T06:54:43.152Z,5.46
2019-03-24T06:55:43.137Z,5.46
2019-03-24T06:56:43.125Z,5.42
2019-03-24T06:57:43.138Z,5.46
2019-03-24T06:58:43.131Z,5.46
2019-03-24T06:59:43.095Z,5.31
2019-03-24T07:00:43.084Z,5.43
2019-03-24T07:01:43.099Z,5.43
2019-03-24T07:02:43.060Z,5.42
2019-03-24T07:03:43.050Z,5.38
2019-03-24T07:04:43.041Z,5.46
2019-03-24T07:05:43.061Z,5.39
2019-03-24T07:06:43.015Z,5.38
2019-03-24T07:07:43.009Z,5.45
2019-03-24T07:08:42.998Z,5.33
2019-03-24T07:09:42.979Z,5.40
2019-03-24T07:10:42.985Z,5.38
2019-03-24T07:11:42.958Z,5.45
2019-03-24T07:12:42.947Z,5.49
2019-03-24T07:13:42.960Z,5.45
2019-03-24T07:14:42.924Z,5.45
2019-03-24T07:15:42.913Z,5.46
2019-03-24T07:16:42.903Z,5.45
2019-03-24T07:17:42.892Z,5.43
2019-03-24T07:18:42.904Z,5.42
2019-03-24T07:19:42.868Z,5.43
2019-03-24T07:20:42.880Z,5.38
2019-03-24T07:21:42.847Z,5.35
2019-03-24T07:22:42.834Z,5.42
2019-03-24T07:23:42.827Z,5.48
2019-03-24T07:24:42.835Z,5.40
2019-03-24T07:25:42.801Z,5.49
2019-03-24T07:26:42.792Z,5.48
2019-03-24T07:27:42.781Z,5.42
2019-03-24T07:28:42.767Z,5.48
2019-03-24T07:29:42.777Z,5.53
2019-03-24T07:30:42.744Z,5.49
2019-03-24T07:31:42.742Z,5.51
2019-03-24T07:32:42.723Z,5.46
2019-03-24T07:33:42.720Z,5.54
2019-03-24T07:34:42.727Z,5.57
2019-03-24T07:35:42.692Z,5.51
2019-03-24T07:36:42.677Z,5.65
2019-03-24T07:37:42.666Z,5.57
2019-03-24T07:38:42.657Z,5.54
2019-03-24T07:39:42.660Z,5.58
2019-03-24T07:40:42.643Z,5.65
2019-03-24T07:41:42.642Z,5.63
2019-03-24T07:42:42.614Z,5.72
2019-03-24T07:43:42.601Z,5.63
2019-03-24T07:44:42.611Z,5.61
2019-03-24T07:45:42.578Z,5.61
2019-03-24T07:46:42.565Z,5.58
2019-03-24T07:47:42.584Z,5.56
2019-03-24T07:48:42.543Z,5.56
2019-03-24T07:49:42.535Z,5.65
2019-03-24T07:50:42.524Z,5.64
2019-03-24T07:51:42.544Z,5.65
2019-03-24T07:52:42.499Z,5.72
2019-03-24T07:53:42.488Z,5.71
2019-03-24T07:54:42.479Z,5.72
2019-03-24T07:55:42.465Z,5.71
2019-03-24T07:56:42.477Z,5.71
2019-03-24T07:57:42.442Z,5.75
2019-03-24T07:58:42.446Z,5.78
2019-03-24T07:59:42.442Z,5.83
2019-03-24T08:00:42.414Z,5.81
2019-03-24T08:01:42.419Z,5.81
2019-03-24T08:02:50.789Z,5.81
2019-03-24T08:03:43.375Z,5.86
2019-03-24T08:04:42.367Z,5.90
2019-03-24T08:05:42.377Z,5.86
2019-03-24T08:06:42.342Z,5.83
2019-03-24T08:07:42.332Z,5.86
2019-03-24T08:08:44.499Z,5.91
2019-03-24T08:09:42.330Z,5.94
2019-03-24T08:10:42.296Z,5.99
2019-03-24T08:11:42.285Z,5.96
2019-03-24T08:12:42.299Z,5.89
2019-03-24T08:13:53.117Z,5.97
2019-03-24T08:14:43.275Z,5.94
2019-03-24T08:15:42.240Z,5.99
2019-03-24T08:16:42.268Z,5.90
2019-03-24T08:17:42.218Z,6.06
2019-03-24T08:18:42.207Z,6.08
2019-03-24T08:19:42.196Z,6.15
2019-03-24T08:20:42.188Z,6.18
2019-03-24T08:21:42.197Z,6.19
2019-03-24T08:22:42.185Z,6.28
2019-03-24T08:23:42.151Z,6.28
2019-03-24T08:24:42.139Z,6.31
2019-03-24T08:25:42.127Z,6.25
2019-03-24T08:26:42.117Z,6.30
2019-03-24T08:27:42.134Z,6.31
2019-03-24T08:28:42.097Z,6.31
2019-03-24T08:29:42.084Z,6.30
2019-03-24T08:30:42.095Z,6.34
2019-03-24T08:31:42.068Z,6.41
2019-03-24T08:32:42.053Z,6.43
2019-03-24T08:33:42.039Z,6.48
2019-03-24T08:34:42.030Z,6.59
2019-03-24T08:35:42.040Z,6.55
2019-03-24T08:36:42.006Z,6.49
2019-03-24T08:37:42.014Z,6.61
2019-03-24T08:38:41.982Z,6.59
2019-03-24T08:39:41.973Z,6.51
2019-03-24T08:40:41.961Z,6.67
2019-03-24T08:41:41.973Z,6.70
2019-03-24T08:42:41.942Z,6.67
2019-03-24T08:43:41.929Z,6.74
2019-03-24T08:44:41.918Z,6.94
2019-03-24T08:45:41.947Z,6.88
2019-03-24T08:46:44.417Z,6.84
2019-03-24T08:47:41.882Z,6.84
2019-03-24T08:48:41.877Z,6.95
2019-03-24T08:49:41.860Z,6.92
2019-03-24T08:50:41.875Z,6.95
2019-03-24T08:51:41.863Z,6.97
2019-03-24T08:52:41.826Z,6.97
2019-03-24T08:53:41.816Z,6.98
2019-03-24T08:54:41.802Z,7.13
2019-03-24T08:55:41.812Z,7.23
2019-03-24T08:56:41.780Z,7.25
2019-03-24T08:57:41.782Z,7.43
2019-03-24T08:58:41.782Z,7.37
2019-03-24T08:59:41.769Z,7.39
2019-03-24T09:00:41.750Z,7.50
2019-03-24T09:01:41.747Z,7.50
2019-03-24T09:02:41.712Z,7.69
2019-03-24T09:03:41.704Z,7.52
2019-03-24T09:04:41.690Z,7.58
2019-03-24T09:05:41.681Z,7.52
2019-03-24T09:06:41.688Z,7.58
2019-03-24T09:07:41.656Z,7.63
2019-03-24T09:08:41.644Z,7.63
2019-03-24T09:09:41.668Z,7.52
2019-03-24T09:10:41.622Z,7.50
2019-03-24T09:11:41.610Z,7.52
2019-03-24T09:12:41.601Z,7.50
2019-03-24T09:13:41.631Z,7.45
2019-03-24T09:14:41.606Z,7.61
2019-03-24T09:15:43.218Z,7.68
2019-03-24T09:16:41.561Z,7.87
2019-03-24T09:17:41.572Z,7.98
2019-03-24T09:18:52.147Z,8.15
2019-03-24T09:19:42.544Z,8.26
2019-03-24T09:20:42.099Z,8.41
2019-03-24T09:21:41.502Z,8.47
2019-03-24T09:22:41.489Z,8.28
2019-03-24T09:23:41.492Z,8.29
2019-03-24T09:24:41.465Z,8.50
2019-03-24T09:25:41.478Z,8.63
2019-03-24T09:26:41.442Z,8.66
2019-03-24T09:27:41.431Z,8.89
2019-03-24T09:28:41.425Z,8.96
2019-03-24T09:29:41.408Z,9.04
2019-03-24T09:30:41.418Z,8.89
2019-03-24T09:31:41.390Z,8.68
2019-03-24T09:32:41.396Z,8.58
2019-03-24T09:33:41.364Z,8.65
2019-03-24T09:34:41.352Z,8.87
2019-03-24T09:35:41.340Z,8.95
2019-03-24T09:36:41.328Z,8.96
2019-03-24T09:37:41.351Z,8.80
2019-03-24T09:38:41.312Z,8.87
2019-03-24T09:39:41.295Z,8.94
2019-03-24T09:40:41.287Z,8.94
2019-03-24T09:41:41.273Z,9.13
2019-03-24T09:42:41.288Z,9.08
2019-03-24T09:43:41.251Z,8.99
2019-03-24T09:44:41.238Z,8.95
2019-03-24T09:45:41.228Z,8.92
2019-03-24T09:46:41.232Z,8.86
2019-03-24T09:47:41.221Z,8.74
2019-03-24T09:48:41.219Z,8.53
2019-03-24T09:49:41.204Z,8.52
2019-03-24T09:50:41.196Z,8.61
2019-03-24T09:51:41.189Z,8.86
2019-03-24T09:52:41.236Z,8.94
2019-03-24T09:53:41.139Z,8.86
2019-03-24T09:54:41.141Z,8.76
2019-03-24T09:55:41.147Z,8.80
2019-03-24T09:56:41.103Z,8.74
2019-03-24T09:57:41.091Z,8.68
2019-03-24T09:58:41.080Z,8.77
2019-03-24T09:59:41.070Z,8.74
2019-03-24T10:00:41.082Z,8.79
2019-03-24T10:01:41.050Z,8.94
2019-03-24T10:02:41.036Z,8.94
2019-03-24T10:03:41.028Z,8.96
2019-03-24T10:04:41.021Z,8.96
2019-03-24T10:05:41.031Z,9.11
2019-03-24T10:06:41.021Z,9.35
2019-03-24T10:07:40.979Z,9.18
2019-03-24T10:08:46.989Z,9.31
2019-03-24T10:09:41.955Z,9.33
2019-03-24T10:10:40.949Z,9.39
2019-03-24T10:11:40.956Z,9.33
2019-03-24T10:12:40.921Z,9.05
2019-03-24T10:13:40.933Z,8.98
2019-03-24T10:14:40.922Z,8.68
2019-03-24T10:15:40.888Z,8.73
2019-03-24T10:16:40.877Z,8.86
2019-03-24T10:17:40.869Z,9.08
2019-03-24T10:18:40.868Z,9.14
2019-03-24T10:19:40.843Z,9.11
2019-03-24T10:20:40.865Z,9.01
2019-03-24T10:21:40.820Z,9.11
2019-03-24T10:22:40.831Z,9.10
2019-03-24T10:23:40.799Z,9.17
2019-03-24T10:24:40.816Z,9.10
2019-03-24T10:25:40.801Z,8.92
2019-03-24T10:26:40.764Z,9.08
2019-03-24T10:27:40.754Z,9.10
2019-03-24T10:28:40.744Z,9.02
2019-03-24T10:29:40.729Z,9.14
2019-03-24T10:30:40.740Z,9.35
2019-03-24T10:31:42.541Z,9.32
2019-03-24T10:32:40.696Z,9.35
2019-03-24T10:33:40.684Z,9.39
2019-03-24T10:34:40.673Z,9.35
2019-03-24T10:35:40.685Z,9.57
2019-03-24T10:36:40.654Z,9.53
2019-03-24T10:37:40.661Z,9.83
2019-03-24T10:38:40.632Z,9.94
2019-03-24T10:39:40.617Z,10.02
2019-03-24T10:40:40.630Z,10.17
2019-03-24T10:41:40.599Z,10.45
2019-03-24T10:42:40.585Z,10.48
2019-03-24T10:43:40.574Z,10.36
2019-03-24T10:44:40.560Z,10.26
2019-03-24T10:45:40.573Z,10.33
2019-03-24T10:46:40.539Z,10.42
2019-03-24T10:47:40.526Z,10.52
2019-03-24T10:48:40.521Z,10.59
2019-03-24T10:49:40.510Z,10.79
2019-03-24T10:50:40.519Z,10.68
2019-03-24T10:51:40.502Z,10.61
2019-03-24T10:52:40.471Z,10.23
2019-03-24T10:53:40.461Z,10.34
2019-03-24T10:54:40.451Z,10.45
2019-03-24T10:55:40.437Z,10.70
2019-03-24T10:56:40.465Z,10.67
2019-03-24T10:57:40.417Z,10.70
2019-03-24T10:58:40.433Z,10.61
2019-03-24T10:59:40.391Z,10.42
2019-03-24T11:00:40.394Z,10.38
2019-03-24T11:01:40.417Z,10.45
2019-03-24T11:02:40.360Z,10.41
2019-03-24T11:03:40.346Z,10.52
2019-03-24T11:04:40.337Z,10.81
2019-03-24T11:05:40.351Z,10.82
2019-03-24T11:06:40.334Z,10.74
2019-03-24T11:07:40.307Z,10.71
2019-03-24T11:08:40.319Z,10.85
2019-03-24T11:09:40.279Z,11.14
2019-03-24T11:10:40.269Z,11.21
2019-03-24T11:11:40.257Z,11.40
2019-03-24T11:12:40.276Z,11.29
2019-03-24T11:13:40.239Z,11.07
2019-03-24T11:14:40.227Z,10.97
2019-03-24T11:15:40.211Z,11.04
2019-03-24T11:16:40.221Z,10.86
2019-03-24T11:17:40.224Z,11.10
2019-03-24T11:18:40.179Z,11.11
2019-03-24T11:19:40.169Z,11.25
2019-03-24T11:20:40.159Z,11.18
2019-03-24T11:21:40.147Z,11.02
2019-03-24T11:22:40.157Z,11.19
2019-03-24T11:23:40.145Z,11.27
2019-03-24T11:24:40.132Z,11.32
2019-03-24T11:25:40.099Z,11.28
2019-03-24T11:26:40.090Z,11.39
2019-03-24T11:27:40.077Z,11.42
2019-03-24T11:28:40.088Z,11.40
2019-03-24T11:29:40.073Z,11.25
2019-03-24T11:30:40.043Z,11.11
2019-03-24T11:31:40.053Z,11.03
2019-03-24T11:32:40.043Z,11.00
2019-03-24T11:33:40.008Z,11.10
2019-03-24T11:34:39.997Z,11.17
2019-03-24T11:35:40.013Z,11.06
2019-03-24T11:36:40.010Z,11.40
2019-03-24T11:37:39.962Z,11.37
2019-03-24T11:38:39.979Z,11.33
2019-03-24T11:39:39.995Z,11.35
2019-03-24T11:40:39.929Z,11.54
2019-03-24T11:41:39.924Z,11.75
2019-03-24T11:42:39.906Z,11.98
2019-03-24T11:43:39.910Z,12.31
2019-03-24T11:44:39.883Z,12.46
2019-03-24T11:45:39.874Z,12.74
2019-03-24T11:46:39.868Z,12.90
2019-03-24T11:47:39.863Z,13.04
2019-03-24T11:48:39.859Z,13.01
2019-03-24T11:49:45.954Z,12.75
2019-03-24T11:50:40.815Z,12.27
2019-03-24T11:51:39.818Z,12.04
2019-03-24T11:52:39.823Z,11.96
2019-03-24T11:53:39.787Z,12.07
2019-03-24T11:54:39.771Z,12.49
2019-03-24T11:55:39.760Z,12.53
2019-03-24T11:56:39.748Z,12.31
2019-03-24T11:57:39.761Z,12.05
2019-03-24T11:58:39.810Z,12.01
2019-03-24T11:59:39.715Z,12.28
2019-03-24T12:00:39.706Z,12.60
2019-03-24T12:01:39.706Z,12.83
2019-03-24T12:02:39.704Z,12.72
2019-03-24T12:03:39.668Z,12.60
2019-03-24T12:04:39.659Z,12.28
2019-03-24T12:05:39.675Z,12.10
2019-03-24T12:06:39.639Z,12.29
2019-03-24T12:07:39.624Z,12.47
2019-03-24T12:08:39.637Z,12.64
2019-03-24T12:09:39.605Z,12.60
2019-03-24T12:10:39.598Z,12.62
2019-03-24T12:11:39.579Z,12.87
2019-03-24T12:12:39.568Z,13.12
2019-03-24T12:13:39.573Z,13.51
2019-03-24T12:14:39.549Z,13.66
2019-03-24T12:15:39.535Z,13.88
2019-03-24T12:16:39.526Z,13.97
2019-03-24T12:17:39.514Z,14.20
2019-03-24T12:18:39.523Z,14.28
2019-03-24T12:19:39.490Z,14.40
2019-03-24T12:20:39.480Z,14.29
2019-03-24T12:21:39.468Z,14.27
2019-03-24T12:22:39.462Z,14.40
2019-03-24T12:23:39.458Z,14.35
2019-03-24T12:24:39.466Z,14.06
2019-03-24T12:25:39.422Z,13.82
2019-03-24T12:26:39.410Z,13.62
2019-03-24T12:27:39.401Z,13.67
2019-03-24T12:28:39.391Z,13.44
2019-03-24T12:29:39.398Z,13.17
2019-03-24T12:30:39.364Z,13.03
2019-03-24T12:31:39.353Z,13.26
2019-03-24T12:32:39.343Z,13.64
2019-03-24T12:33:39.332Z,13.89
2019-03-24T12:34:39.356Z,14.07
2019-03-24T12:35:39.308Z,14.12
2019-03-24T12:36:39.298Z,14.00
2019-03-24T12:37:39.302Z,13.63
2019-03-24T12:38:39.280Z,12.82
2019-03-24T12:39:39.262Z,12.49
2019-03-24T12:40:39.282Z,12.28
2019-03-24T12:41:39.239Z,12.39
2019-03-24T12:42:39.229Z,12.52
2019-03-24T12:43:39.217Z,12.60
2019-03-24T12:44:39.205Z,13.03
2019-03-24T12:45:39.215Z,13.11
2019-03-24T12:46:39.183Z,13.25
2019-03-24T12:47:39.171Z,12.95
2019-03-24T12:48:39.163Z,12.95
2019-03-24T12:49:39.198Z,12.77
2019-03-24T12:50:39.152Z,13.11
2019-03-24T12:51:39.157Z,13.51
2019-03-24T12:52:39.117Z,13.70
2019-03-24T12:53:39.103Z,14.06
2019-03-24T12:54:39.093Z,14.32
2019-03-24T12:55:39.081Z,14.27
2019-03-24T12:56:39.106Z,13.92
2019-03-24T12:57:39.058Z,13.79
2019-03-24T12:58:39.046Z,13.96
2019-03-24T12:59:39.036Z,14.02
2019-03-24T13:00:39.054Z,14.15
2019-03-24T13:01:39.051Z,14.35
2019-03-24T13:02:39.001Z,14.07
2019-03-24T13:03:38.997Z,13.46
2019-03-24T13:04:39.000Z,13.33
2019-03-24T13:05:38.967Z,13.41
2019-03-24T13:06:38.956Z,13.78
2019-03-24T13:07:38.947Z,13.89
2019-03-24T13:08:38.948Z,14.20
2019-03-24T13:09:38.921Z,14.40
2019-03-24T13:10:38.911Z,14.54
2019-03-24T13:11:38.915Z,14.45
2019-03-24T13:12:38.888Z,14.39
2019-03-24T13:13:38.902Z,14.28